Mangum, Oklahoma
Current Conditions -  °F | °C
As of 12:15 AM on Thursday 23 Oct 2014 (Local Time) from KAXS Reporting Station
Scattered Clouds Scattered Clouds  
Wind Chill: 61°   Ceiling: Unl
Heat Index: 61°   Visibility: 10mi
Dew Point: 58°   Wind: 3mph
Humidity: 88%   Direction: 90°E
Pressure: 30.12"   Gusts: NA
Location:  34.87°N, 99.5°W
Report Text: KAXS 230515Z AUTO 09003KT 10SM SCT050 SCT085 16/14 A3012 RMK AO2 T01610142
Loading
Personal Weather Stations






























Interactive Weather Map
Tropical Storm Tracking
New forecast layout! Learn more

10-Day Weather Forecast

Advertisements
Track Severe Weather on mobile